Time;durP1;ratioP1;P1;durP2;ratioP2;P2;SDS_P1;SDS_P2;PMS_P1;PMS_P2;Temp;Humidity;BMP_temperature;BMP_pressure;BME280_temperature;BME280_humidity;BME280_pressure;Samples;Min_cycle;Max_cycle;Signal;HPM_P1;HPM_P2
2023/12/07 00:01:35;;;;;;;8.13;6.70;;;6.60;99.90;;;;;;943425;146;27624;-79
2023/12/07 00:04:01;;;;;;;7.03;6.33;;;6.50;99.90;;;;;;944582;147;27293;-79
2023/12/07 00:06:28;;;;;;;8.63;7.00;;;6.50;99.90;;;;;;948748;146;27388;-79
2023/12/07 00:08:55;;;;;;;9.00;7.23;;;6.50;99.90;;;;;;956068;146;27284;-82
2023/12/07 00:11:24;;;;;;;7.60;6.50;;;6.50;99.90;;;;;;954684;146;27439;-82
2023/12/07 00:13:50;;;;;;;7.83;7.10;;;6.50;99.90;;;;;;952604;146;27271;-82
2023/12/07 00:16:17;;;;;;;9.37;6.67;;;6.50;99.90;;;;;;947741;146;27292;-82
2023/12/07 00:18:44;;;;;;;7.43;6.70;;;6.50;99.90;;;;;;946502;146;27287;-82
2023/12/07 00:21:10;;;;;;;8.33;6.73;;;6.50;99.90;;;;;;945874;147;27483;-83
2023/12/07 00:23:39;;;;;;;8.63;7.73;;;6.50;99.90;;;;;;947194;146;27241;-82
2023/12/07 00:26:06;;;;;;;8.60;7.73;;;6.50;99.90;;;;;;946467;147;27466;-82
2023/12/07 00:28:33;;;;;;;12.00;7.70;;;6.50;99.90;;;;;;947867;146;27312;-81
2023/12/07 00:30:59;;;;;;;8.10;7.03;;;6.40;99.90;;;;;;945016;146;27363;-82
2023/12/07 00:33:26;;;;;;;8.67;7.13;;;6.40;99.90;;;;;;945331;147;27341;-82
2023/12/07 00:35:52;;;;;;;7.90;6.37;;;6.40;99.90;;;;;;949597;146;27331;-82
2023/12/07 00:38:20;;;;;;;9.80;8.33;;;6.30;99.90;;;;;;943019;146;27350;-82
2023/12/07 00:40:46;;;;;;;8.70;7.40;;;6.30;99.90;;;;;;943656;147;27419;-82
2023/12/07 00:43:12;;;;;;;9.03;7.30;;;6.20;99.90;;;;;;948061;146;27498;-82
2023/12/07 00:45:39;;;;;;;8.17;7.33;;;6.20;99.90;;;;;;953635;146;27368;-82
2023/12/07 00:48:05;;;;;;;8.97;6.97;;;6.10;99.90;;;;;;952799;146;27368;-82
2023/12/07 00:50:32;;;;;;;8.77;7.60;;;6.10;99.90;;;;;;954767;146;27455;-82
2023/12/07 00:52:58;;;;;;;8.07;6.83;;;6.10;99.90;;;;;;953573;146;28546;-82
2023/12/07 00:55:25;;;;;;;14.23;7.83;;;6.00;99.90;;;;;;953659;146;27408;-82
2023/12/07 00:57:52;;;;;;;8.47;7.37;;;6.00;99.90;;;;;;953579;146;27295;-82
2023/12/07 01:00:18;;;;;;;12.00;7.53;;;6.00;99.90;;;;;;953285;146;27363;-84
2023/12/07 01:02:45;;;;;;;8.17;7.30;;;6.00;99.90;;;;;;955827;146;27343;-84
2023/12/07 01:05:11;;;;;;;12.40;7.60;;;6.00;99.90;;;;;;952263;146;28514;-85
2023/12/07 01:07:38;;;;;;;8.33;7.33;;;5.90;99.90;;;;;;955213;146;27304;-84
2023/12/07 01:10:05;;;;;;;9.90;7.00;;;5.90;99.90;;;;;;952968;146;27327;-84
2023/12/07 01:12:31;;;;;;;10.40;7.03;;;5.90;99.90;;;;;;952212;146;27428;-82
2023/12/07 01:14:58;;;;;;;8.37;6.40;;;5.90;99.90;;;;;;953190;146;27431;-85
2023/12/07 01:17:24;;;;;;;7.10;6.40;;;5.90;99.90;;;;;;954385;146;27398;-85
2023/12/07 01:19:51;;;;;;;9.53;6.60;;;5.90;99.90;;;;;;953689;146;27420;-82
2023/12/07 01:22:17;;;;;;;7.80;6.40;;;5.80;99.90;;;;;;954700;146;27342;-82
2023/12/07 01:24:44;;;;;;;7.10;6.10;;;5.80;99.90;;;;;;953886;146;27823;-82
2023/12/07 01:27:11;;;;;;;7.80;6.73;;;5.80;99.90;;;;;;954477;146;28198;-82
2023/12/07 01:29:37;;;;;;;6.20;5.60;;;5.80;99.90;;;;;;952796;146;27276;-82
2023/12/07 01:32:05;;;;;;;6.30;5.70;;;5.80;99.90;;;;;;952165;146;27254;-82
2023/12/07 01:34:30;;;;;;;8.97;6.70;;;5.80;99.90;;;;;;953592;146;27352;-82
2023/12/07 01:36:57;;;;;;;8.30;6.63;;;5.70;99.90;;;;;;951063;146;27832;-82
2023/12/07 01:39:24;;;;;;;7.67;6.70;;;5.70;99.90;;;;;;952240;146;27462;-82
2023/12/07 01:41:50;;;;;;;7.50;6.37;;;5.60;99.90;;;;;;955373;146;27328;-82
2023/12/07 01:44:17;;;;;;;7.07;6.00;;;5.60;99.90;;;;;;943956;146;27468;-82
2023/12/07 01:46:43;;;;;;;10.37;7.00;;;5.50;99.90;;;;;;944532;148;27347;-82
2023/12/07 01:49:10;;;;;;;7.63;6.43;;;5.40;99.90;;;;;;942514;148;27441;-82
2023/12/07 01:51:37;;;;;;;7.13;6.43;;;5.40;99.90;;;;;;941454;148;27300;-82
2023/12/07 01:54:03;;;;;;;9.53;6.47;;;5.20;99.90;;;;;;941851;148;27793;-84
2023/12/07 01:56:30;;;;;;;6.90;6.20;;;5.10;99.90;;;;;;943701;148;27348;-84
2023/12/07 01:58:56;;;;;;;8.10;6.67;;;5.00;99.90;;;;;;947516;146;28501;-84
2023/12/07 02:01:23;;;;;;;7.10;6.40;;;4.90;99.90;;;;;;942934;148;27280;-82
2023/12/07 02:03:49;;;;;;;9.57;6.97;;;4.80;99.90;;;;;;946778;148;27275;-82
2023/12/07 02:06:16;;;;;;;9.60;8.30;;;4.70;99.90;;;;;;945599;146;27373;-82
2023/12/07 02:08:43;;;;;;;11.77;8.20;;;4.60;99.90;;;;;;942365;148;27339;-83
2023/12/07 02:11:09;;;;;;;9.80;7.30;;;4.50;99.90;;;;;;945566;148;27318;-82
2023/12/07 02:13:39;;;;;;;15.20;8.40;;;4.40;99.90;;;;;;946430;147;27293;-83
2023/12/07 02:16:05;;;;;;;10.40;7.77;;;4.30;99.90;;;;;;931776;148;27405;-82
2023/12/07 02:18:35;;;;;;;11.17;8.23;;;4.20;99.90;;;;;;944281;146;27335;-83
2023/12/07 02:21:10;;;;;;;8.43;7.07;;;4.10;99.90;;;;;;945498;146;27324;-83
2023/12/07 02:23:37;;;;;;;11.50;8.27;;;4.00;99.90;;;;;;949629;146;27333;-82
2023/12/07 02:26:28;;;;;;;10.93;8.23;;;3.90;99.90;;;;;;950516;146;27401;-82
2023/12/07 02:28:52;;;;;;;13.57;8.77;;;3.90;99.90;;;;;;947464;146;27452;-83
2023/12/07 02:31:18;;;;;;;10.37;7.77;;;3.80;99.90;;;;;;948817;146;27347;-80
2023/12/07 02:33:44;;;;;;;10.80;8.07;;;3.70;99.90;;;;;;950570;146;27286;-80
2023/12/07 02:36:11;;;;;;;8.37;6.90;;;3.70;99.90;;;;;;948253;147;27658;-80
2023/12/07 02:38:38;;;;;;;10.13;7.50;;;3.70;99.90;;;;;;945492;146;27327;-81
2023/12/07 02:41:04;;;;;;;11.10;7.53;;;3.60;99.90;;;;;;947698;146;27356;-80
2023/12/07 02:43:31;;;;;;;9.03;7.50;;;3.60;99.90;;;;;;948221;147;27384;-80
2023/12/07 02:45:58;;;;;;;10.63;8.13;;;3.60;99.90;;;;;;950956;147;27320;-81
2023/12/07 02:48:24;;;;;;;9.13;7.73;;;3.50;99.90;;;;;;951180;147;27312;-81
2023/12/07 02:50:50;;;;;;;8.67;7.27;;;3.50;99.90;;;;;;950487;147;27368;-80
2023/12/07 02:53:17;;;;;;;7.43;6.73;;;3.50;99.90;;;;;;950695;147;27343;-80
2023/12/07 02:55:44;;;;;;;9.60;7.03;;;3.50;99.90;;;;;;949857;147;27432;-81
2023/12/07 02:58:10;;;;;;;7.77;6.80;;;3.40;99.90;;;;;;951859;147;27400;-80
2023/12/07 03:00:37;;;;;;;7.73;6.40;;;3.40;99.90;;;;;;949515;147;27312;-81
2023/12/07 03:03:03;;;;;;;10.47;7.00;;;3.40;99.90;;;;;;949389;147;27444;-80
2023/12/07 03:05:30;;;;;;;6.97;6.27;;;3.30;99.90;;;;;;948420;148;27323;-79
2023/12/07 03:07:57;;;;;;;6.97;6.27;;;3.30;99.90;;;;;;946324;148;27347;-81
2023/12/07 03:10:23;;;;;;;7.73;6.17;;;3.30;99.90;;;;;;948226;148;27300;-81
2023/12/07 03:12:50;;;;;;;6.87;5.77;;;3.30;99.90;;;;;;946239;148;27319;-80
2023/12/07 03:15:16;;;;;;;6.60;6.00;;;3.30;99.90;;;;;;949596;147;27344;-80
2023/12/07 03:17:43;;;;;;;7.87;6.27;;;3.20;99.90;;;;;;949791;147;27359;-80
2023/12/07 03:20:10;;;;;;;7.23;5.87;;;3.20;99.90;;;;;;952474;147;27309;-85
2023/12/07 03:22:36;;;;;;;6.40;5.73;;;3.20;99.90;;;;;;951015;146;27276;-86
2023/12/07 03:25:03;;;;;;;7.13;5.73;;;3.20;99.90;;;;;;948899;147;27512;-82
2023/12/07 03:27:29;;;;;;;6.57;5.93;;;3.10;99.90;;;;;;950761;147;27391;-85
2023/12/07 03:29:56;;;;;;;7.10;5.73;;;3.10;99.90;;;;;;951522;147;27289;-85
2023/12/07 03:32:22;;;;;;;8.40;6.30;;;3.00;99.90;;;;;;948573;148;27370;-86
2023/12/07 03:34:49;;;;;;;8.30;5.73;;;3.00;99.90;;;;;;950265;147;27262;-86
2023/12/07 03:37:16;;;;;;;5.97;5.47;;;2.90;99.90;;;;;;947017;147;27343;-86
2023/12/07 03:39:42;;;;;;;7.27;6.17;;;2.90;99.90;;;;;;951278;147;27273;-78
2023/12/07 03:42:09;;;;;;;8.17;5.57;;;2.80;99.90;;;;;;949075;148;27633;-79
2023/12/07 03:44:35;;;;;;;7.17;5.47;;;2.80;99.90;;;;;;945620;147;27450;-81
2023/12/07 03:47:02;;;;;;;6.60;5.43;;;2.70;99.90;;;;;;948151;147;27660;-78
2023/12/07 03:49:28;;;;;;;6.87;5.60;;;2.70;99.90;;;;;;948998;147;27399;-78
2023/12/07 03:51:55;;;;;;;7.23;5.90;;;2.60;99.90;;;;;;944921;147;27301;-80
2023/12/07 03:54:22;;;;;;;8.30;6.57;;;2.60;99.90;;;;;;944021;147;27344;-79
2023/12/07 03:56:48;;;;;;;7.63;6.30;;;2.60;99.90;;;;;;947718;147;27428;-78
2023/12/07 03:59:15;;;;;;;6.63;5.33;;;2.50;99.90;;;;;;951125;147;27253;-78
2023/12/07 04:01:41;;;;;;;7.83;5.70;;;2.50;99.90;;;;;;950539;147;27378;-80
2023/12/07 04:04:08;;;;;;;6.70;6.00;;;2.40;99.90;;;;;;949833;146;27420;-78
2023/12/07 04:06:35;;;;;;;7.53;5.90;;;2.40;99.90;;;;;;951233;147;27402;-78
2023/12/07 04:09:02;;;;;;;7.97;6.10;;;2.40;99.90;;;;;;948652;147;27262;-78
2023/12/07 04:11:28;;;;;;;6.57;5.87;;;2.30;99.90;;;;;;949528;147;27275;-80
2023/12/07 04:13:54;;;;;;;10.70;6.77;;;2.30;99.90;;;;;;950654;147;27339;-78
2023/12/07 04:16:21;;;;;;;6.03;5.43;;;2.30;99.90;;;;;;952342;147;27402;-78
2023/12/07 04:18:48;;;;;;;7.87;6.27;;;2.20;99.90;;;;;;949418;147;27256;-78
2023/12/07 04:21:14;;;;;;;7.97;5.67;;;2.20;99.90;;;;;;950773;147;27272;-78
2023/12/07 04:23:42;;;;;;;6.30;5.70;;;2.10;99.90;;;;;;950465;147;27279;-80
2023/12/07 04:26:07;;;;;;;6.67;6.00;;;2.10;99.90;;;;;;951328;146;27445;-77
2023/12/07 04:28:34;;;;;;;6.00;5.40;;;2.10;99.90;;;;;;949694;147;27343;-78
2023/12/07 04:31:00;;;;;;;7.53;6.20;;;2.10;99.90;;;;;;948249;147;27343;-85
2023/12/07 04:33:27;;;;;;;6.83;5.97;;;2.00;99.90;;;;;;944949;147;27281;-85
2023/12/07 04:35:54;;;;;;;9.03;6.43;;;2.00;99.90;;;;;;945678;147;27296;-81
2023/12/07 04:38:20;;;;;;;11.97;6.37;;;2.00;99.90;;;;;;949334;147;27504;-85
2023/12/07 04:40:47;;;;;;;5.93;5.23;;;2.00;99.90;;;;;;951262;147;27440;-86
2023/12/07 04:43:13;;;;;;;6.60;5.93;;;1.90;99.90;;;;;;949285;147;27396;-86
2023/12/07 04:45:40;;;;;;;6.57;5.87;;;1.90;99.90;;;;;;945235;147;27281;-84
2023/12/07 04:48:07;;;;;;;7.87;6.50;;;1.90;99.90;;;;;;939122;149;27336;-83
2023/12/07 04:50:33;;;;;;;7.70;6.20;;;1.90;99.90;;;;;;939745;149;27437;-83
2023/12/07 04:53:00;;;;;;;7.87;6.53;;;1.90;99.90;;;;;;939528;149;27276;-83
2023/12/07 04:55:26;;;;;;;10.33;6.83;;;1.80;99.90;;;;;;941158;149;27436;-82
2023/12/07 04:57:53;;;;;;;7.80;6.77;;;1.80;99.90;;;;;;937627;148;27406;-81
2023/12/07 05:00:20;;;;;;;8.03;6.93;;;1.80;99.90;;;;;;941117;149;27355;-83
2023/12/07 05:02:46;;;;;;;8.77;7.20;;;1.70;99.90;;;;;;937698;148;27219;-83
2023/12/07 05:05:13;;;;;;;8.73;6.80;;;1.70;99.90;;;;;;939995;148;27317;-83
2023/12/07 05:07:39;;;;;;;7.57;6.73;;;1.70;99.90;;;;;;941119;149;27452;-82
2023/12/07 05:10:06;;;;;;;11.30;6.83;;;1.70;99.90;;;;;;940546;149;27437;-82
2023/12/07 05:12:32;;;;;;;7.47;6.60;;;1.70;99.90;;;;;;939214;150;27393;-82
2023/12/07 05:14:59;;;;;;;7.23;6.40;;;1.70;99.90;;;;;;939660;149;27263;-83
2023/12/07 05:17:26;;;;;;;8.03;7.20;;;1.80;99.90;;;;;;938026;148;27420;-82
2023/12/07 05:19:52;;;;;;;8.13;7.33;;;1.80;99.90;;;;;;939365;149;27375;-82
2023/12/07 05:22:19;;;;;;;7.97;6.80;;;1.90;99.90;;;;;;941331;148;27289;-83
2023/12/07 05:24:45;;;;;;;8.37;6.20;;;1.90;99.90;;;;;;938102;149;27453;-82
2023/12/07 05:27:12;;;;;;;8.97;7.13;;;1.90;99.90;;;;;;938254;149;27403;-82
2023/12/07 05:29:38;;;;;;;9.70;7.60;;;2.00;99.90;;;;;;939827;148;27865;-82
2023/12/07 05:32:05;;;;;;;8.90;6.50;;;2.00;99.90;;;;;;940204;150;27407;-82
2023/12/07 05:34:32;;;;;;;7.83;6.87;;;2.00;99.90;;;;;;941002;149;27276;-83
2023/12/07 05:36:58;;;;;;;8.77;7.30;;;2.00;99.90;;;;;;942432;149;27342;-82
2023/12/07 05:39:25;;;;;;;8.20;7.33;;;2.10;99.90;;;;;;939799;149;28810;-82
2023/12/07 05:41:51;;;;;;;8.93;7.23;;;2.10;99.90;;;;;;938836;149;27361;-78
2023/12/07 05:44:21;;;;;;;9.20;7.17;;;2.10;99.90;;;;;;940779;148;27304;-79
2023/12/07 05:46:45;;;;;;;10.10;7.53;;;2.20;99.90;;;;;;944652;148;27388;-80
2023/12/07 05:49:11;;;;;;;11.77;8.10;;;2.30;99.90;;;;;;941155;148;27375;-78
2023/12/07 05:51:38;;;;;;;8.50;7.33;;;2.40;99.90;;;;;;948380;147;27353;-78
2023/12/07 05:54:05;;;;;;;9.73;7.77;;;2.50;99.90;;;;;;945368;147;27341;-78
2023/12/07 05:56:31;;;;;;;7.87;6.53;;;2.50;99.90;;;;;;942484;147;27296;-80
2023/12/07 05:58:57;;;;;;;9.47;7.63;;;2.60;99.90;;;;;;944972;147;27344;-78
2023/12/07 06:01:24;;;;;;;9.13;7.03;;;2.70;99.90;;;;;;945174;147;27428;-86
2023/12/07 06:03:51;;;;;;;9.83;8.07;;;2.80;99.90;;;;;;943222;147;27330;-85
2023/12/07 06:06:18;;;;;;;10.77;8.10;;;2.80;99.90;;;;;;946713;146;27277;-85
2023/12/07 06:08:44;;;;;;;9.10;8.17;;;2.90;99.90;;;;;;948892;146;27355;-83
2023/12/07 06:11:10;;;;;;;11.83;7.50;;;3.00;99.90;;;;;;948550;146;27490;-84
2023/12/07 06:13:37;;;;;;;10.67;8.53;;;3.00;99.90;;;;;;944806;146;27300;-85
2023/12/07 06:16:04;;;;;;;12.13;7.97;;;3.10;99.90;;;;;;945427;147;27251;-85
2023/12/07 06:18:30;;;;;;;9.87;7.57;;;3.20;99.90;;;;;;947018;147;27329;-82
2023/12/07 06:20:57;;;;;;;10.30;8.03;;;3.20;99.90;;;;;;942423;147;27441;-86
2023/12/07 06:23:23;;;;;;;10.77;7.87;;;3.30;99.90;;;;;;946686;147;27354;-84
2023/12/07 06:25:50;;;;;;;11.40;8.10;;;3.30;99.90;;;;;;943842;147;27346;-84
2023/12/07 06:28:17;;;;;;;10.17;8.63;;;3.40;99.90;;;;;;950124;146;27366;-84
2023/12/07 06:30:43;;;;;;;9.57;8.57;;;3.40;99.90;;;;;;948365;146;27889;-85
2023/12/07 06:33:10;;;;;;;10.43;8.20;;;3.50;99.90;;;;;;947067;146;28235;-84
2023/12/07 06:35:36;;;;;;;10.33;8.43;;;3.50;99.90;;;;;;944496;147;27306;-85
2023/12/07 06:38:03;;;;;;;10.23;8.03;;;3.60;99.90;;;;;;945996;148;27265;-84
2023/12/07 06:40:31;;;;;;;10.60;8.73;;;3.60;99.90;;;;;;947685;147;27340;-82
2023/12/07 06:42:56;;;;;;;9.80;7.80;;;3.60;99.90;;;;;;944104;147;27328;-86
2023/12/07 06:45:23;;;;;;;9.97;8.17;;;3.70;99.90;;;;;;945696;147;27276;-85
2023/12/07 06:47:49;;;;;;;8.67;7.77;;;3.70;99.90;;;;;;952029;147;27720;-85
2023/12/07 06:50:16;;;;;;;9.93;8.13;;;3.70;99.90;;;;;;948094;147;27484;-85
2023/12/07 06:52:42;;;;;;;11.23;8.73;;;3.80;99.90;;;;;;946515;148;27265;-82
2023/12/07 06:55:10;;;;;;;9.63;8.00;;;3.80;99.90;;;;;;946022;148;27345;-82
2023/12/07 06:57:36;;;;;;;10.70;8.63;;;3.80;99.90;;;;;;948268;148;27364;-82
2023/12/07 07:00:05;;;;;;;11.33;8.23;;;3.80;99.90;;;;;;950304;148;27454;-82
2023/12/07 07:02:29;;;;;;;11.03;8.83;;;3.90;99.90;;;;;;948523;148;27304;-82
2023/12/07 07:04:55;;;;;;;11.80;8.30;;;3.90;99.90;;;;;;947934;148;27252;-82
2023/12/07 07:07:22;;;;;;;13.40;9.93;;;3.90;99.90;;;;;;947706;148;27281;-82
2023/12/07 07:09:48;;;;;;;10.97;9.50;;;3.90;99.90;;;;;;949104;148;27373;-82
2023/12/07 07:12:15;;;;;;;10.37;8.53;;;3.90;99.90;;;;;;950253;148;27471;-78
2023/12/07 07:14:42;;;;;;;10.03;8.90;;;3.90;99.90;;;;;;952069;148;27316;-80
2023/12/07 07:17:08;;;;;;;10.63;8.73;;;4.00;99.90;;;;;;953204;147;27393;-80
2023/12/07 07:19:35;;;;;;;11.97;10.03;;;4.00;99.90;;;;;;946483;148;27611;-80
2023/12/07 07:22:01;;;;;;;9.93;8.87;;;4.00;99.90;;;;;;947646;148;27948;-80
2023/12/07 07:24:28;;;;;;;10.23;8.60;;;4.00;99.90;;;;;;948626;147;27368;-80
2023/12/07 07:26:55;;;;;;;9.87;8.87;;;4.00;99.90;;;;;;950847;147;27308;-79
2023/12/07 07:29:21;;;;;;;9.10;8.10;;;4.00;99.90;;;;;;950467;147;27376;-79
2023/12/07 07:31:48;;;;;;;9.50;7.60;;;4.00;99.90;;;;;;953104;147;27816;-81
2023/12/07 07:34:14;;;;;;;9.53;8.53;;;4.00;99.90;;;;;;949306;147;27334;-79
2023/12/07 07:36:41;;;;;;;10.40;8.40;;;4.00;99.90;;;;;;950766;147;27267;-79
2023/12/07 07:39:07;;;;;;;10.47;8.20;;;3.90;99.90;;;;;;950292;148;27287;-79
2023/12/07 07:41:34;;;;;;;9.43;8.17;;;3.90;99.90;;;;;;949878;148;27284;-79
2023/12/07 07:44:01;;;;;;;9.53;8.60;;;3.90;99.90;;;;;;944878;148;27437;-79
2023/12/07 07:46:27;;;;;;;9.30;8.33;;;3.90;99.90;;;;;;951032;146;27345;-79
2023/12/07 07:48:54;;;;;;;9.90;8.90;;;3.90;99.90;;;;;;943457;149;27253;-78
2023/12/07 07:51:20;;;;;;;10.93;8.43;;;3.80;99.90;;;;;;946220;148;27343;-79
2023/12/07 07:53:47;;;;;;;9.97;8.97;;;3.90;99.90;;;;;;950283;146;27310;-81
2023/12/07 07:56:14;;;;;;;11.50;8.77;;;3.90;99.90;;;;;;960915;146;27877;-79
2023/12/07 07:58:40;;;;;;;9.83;8.60;;;3.90;99.90;;;;;;946713;146;27298;-79
2023/12/07 08:01:07;;;;;;;12.17;9.40;;;3.90;99.90;;;;;;956280;146;27284;-80
2023/12/07 08:03:33;;;;;;;12.57;9.07;;;3.90;99.90;;;;;;946398;147;27356;-81
2023/12/07 08:06:00;;;;;;;14.87;9.40;;;4.00;99.90;;;;;;949603;146;27342;-82
2023/12/07 08:08:27;;;;;;;13.20;9.97;;;4.00;99.90;;;;;;956333;146;27275;-82
2023/12/07 08:10:53;;;;;;;11.10;9.27;;;4.00;99.90;;;;;;947822;148;27241;-82
2023/12/07 08:13:20;;;;;;;11.07;9.20;;;4.00;99.90;;;;;;952365;146;27392;-81
2023/12/07 08:15:46;;;;;;;10.37;8.83;;;4.10;99.90;;;;;;956460;146;27356;-82
2023/12/07 08:18:14;;;;;;;13.10;9.70;;;4.10;99.90;;;;;;950664;146;27443;-82
2023/12/07 08:20:39;;;;;;;11.07;9.30;;;4.20;99.90;;;;;;956600;146;27421;-81
2023/12/07 08:23:06;;;;;;;14.23;9.53;;;4.20;99.90;;;;;;953968;146;27243;-80
2023/12/07 08:25:33;;;;;;;12.93;10.20;;;4.30;99.90;;;;;;954876;146;27378;-81
2023/12/07 08:27:59;;;;;;;12.60;10.20;;;4.30;99.90;;;;;;952840;146;27375;-81
2023/12/07 08:30:26;;;;;;;14.17;11.00;;;4.40;99.90;;;;;;947819;148;27446;-80
2023/12/07 08:32:52;;;;;;;11.27;9.37;;;4.50;99.90;;;;;;952366;146;27351;-80
2023/12/07 08:35:19;;;;;;;11.13;9.80;;;4.60;99.90;;;;;;952613;146;27350;-81
2023/12/07 08:37:46;;;;;;;13.73;10.23;;;4.70;99.90;;;;;;957180;146;27280;-81
2023/12/07 08:40:15;;;;;;;14.03;9.57;;;4.80;99.90;;;;;;945946;148;27252;-81
2023/12/07 08:42:39;;;;;;;11.57;10.30;;;4.90;99.90;;;;;;951740;146;27312;-81
2023/12/07 08:45:05;;;;;;;13.03;10.03;;;5.00;99.90;;;;;;946432;148;27331;-81
2023/12/07 08:47:32;;;;;;;11.77;10.57;;;5.20;99.90;;;;;;945335;148;27400;-81
2023/12/07 08:49:59;;;;;;;12.53;9.77;;;5.30;99.90;;;;;;941653;149;27336;-81
2023/12/07 08:52:25;;;;;;;11.23;9.17;;;5.40;99.90;;;;;;941468;148;27405;-81
2023/12/07 08:54:52;;;;;;;10.57;9.27;;;5.40;99.90;;;;;;942075;148;27407;-81
2023/12/07 08:57:18;;;;;;;11.10;9.87;;;5.50;99.90;;;;;;943907;149;27419;-81
2023/12/07 08:59:45;;;;;;;11.40;9.60;;;5.50;99.90;;;;;;943502;149;27301;-81
2023/12/07 09:02:12;;;;;;;11.10;9.20;;;5.50;99.90;;;;;;940517;148;27409;-81
2023/12/07 09:04:39;;;;;;;12.10;8.73;;;5.50;99.90;;;;;;945581;149;27381;-81
2023/12/07 09:07:05;;;;;;;9.97;8.87;;;5.50;99.90;;;;;;940694;147;27348;-81
2023/12/07 09:09:31;;;;;;;9.93;8.83;;;5.50;99.90;;;;;;943130;146;27385;-82
2023/12/07 09:11:58;;;;;;;10.80;8.57;;;5.50;99.90;;;;;;942508;146;27284;-83
2023/12/07 09:14:26;;;;;;;10.00;8.53;;;5.50;99.90;;;;;;943182;146;27308;-82
2023/12/07 09:16:51;;;;;;;10.67;8.83;;;5.40;99.90;;;;;;946544;146;27340;-83
2023/12/07 09:19:18;;;;;;;10.43;9.27;;;5.50;99.90;;;;;;941973;148;27361;-82
2023/12/07 09:21:44;;;;;;;11.27;9.50;;;5.40;99.90;;;;;;941588;146;27400;-82
2023/12/07 09:24:11;;;;;;;11.37;9.73;;;5.40;99.90;;;;;;940093;146;27446;-82
2023/12/07 09:26:37;;;;;;;10.77;9.67;;;5.40;99.90;;;;;;942143;146;27322;-82
2023/12/07 09:29:04;;;;;;;10.30;9.20;;;5.40;99.90;;;;;;943481;146;27416;-82
2023/12/07 09:31:31;;;;;;;11.80;9.80;;;5.40;99.90;;;;;;943324;146;27283;-82
2023/12/07 09:33:57;;;;;;;11.83;10.37;;;5.40;99.90;;;;;;945219;146;27641;-81
2023/12/07 09:36:24;;;;;;;13.00;10.90;;;5.40;99.90;;;;;;943051;146;27847;-81
2023/12/07 09:38:50;;;;;;;13.43;10.37;;;5.40;99.90;;;;;;942319;146;27356;-80
2023/12/07 09:41:17;;;;;;;12.43;11.07;;;5.40;99.90;;;;;;943039;146;27335;-81
2023/12/07 09:43:43;;;;;;;12.23;10.83;;;5.50;99.90;;;;;;939541;146;27330;-81
2023/12/07 09:46:10;;;;;;;13.13;11.13;;;5.50;99.90;;;;;;942418;146;27374;-81
2023/12/07 09:48:37;;;;;;;14.33;11.60;;;5.50;99.90;;;;;;946712;146;27371;-81
2023/12/07 09:51:03;;;;;;;11.93;9.90;;;5.50;99.90;;;;;;953235;147;27440;-81
2023/12/07 09:53:30;;;;;;;12.70;10.50;;;5.60;99.90;;;;;;950273;147;27328;-81
2023/12/07 09:55:57;;;;;;;12.40;11.10;;;5.60;99.90;;;;;;949449;148;27322;-81
2023/12/07 09:58:23;;;;;;;14.07;10.97;;;5.60;99.90;;;;;;953304;148;27286;-81
2023/12/07 10:00:50;;;;;;;14.50;11.50;;;5.60;99.90;;;;;;953157;148;27437;-81
2023/12/07 10:03:22;;;;;;;13.97;10.87;;;5.70;99.90;;;;;;951021;148;27273;-82
2023/12/07 10:05:58;;;;;;;16.87;12.10;;;5.70;99.90;;;;;;947937;147;27288;-81
2023/12/07 10:08:30;;;;;;;12.97;11.07;;;5.80;99.90;;;;;;949533;147;27303;-82
2023/12/07 10:11:08;;;;;;;13.20;10.83;;;5.90;99.90;;;;;;949962;147;27290;-82
2023/12/07 10:13:35;;;;;;;14.67;12.20;;;6.00;99.90;;;;;;947005;146;27274;-83
2023/12/07 10:16:10;;;;;;;13.03;11.00;;;6.00;99.90;;;;;;947384;148;27385;-83
2023/12/07 10:18:37;;;;;;;14.70;11.07;;;6.10;99.90;;;;;;947795;148;27322;-83
2023/12/07 10:21:03;;;;;;;14.47;11.67;;;6.20;99.90;;;;;;948234;148;27282;-83
2023/12/07 10:23:31;;;;;;;15.60;12.13;;;6.20;99.90;;;;;;952033;147;27842;-86
2023/12/07 10:25:56;;;;;;;16.43;12.13;;;6.30;99.90;;;;;;950434;147;27465;-86
2023/12/07 10:28:23;;;;;;;14.13;11.60;;;6.30;99.90;;;;;;948946;148;27437;-86
2023/12/07 10:30:50;;;;;;;14.60;12.13;;;6.40;99.90;;;;;;949067;148;27409;-86
2023/12/07 10:33:16;;;;;;;14.57;11.73;;;6.50;99.90;;;;;;949329;148;27294;-86
2023/12/07 10:35:43;;;;;;;15.30;11.60;;;6.50;99.90;;;;;;951046;148;27350;-84
2023/12/07 10:38:09;;;;;;;13.93;11.77;;;6.50;99.90;;;;;;947174;148;27328;-86
2023/12/07 10:40:36;;;;;;;12.70;10.97;;;6.50;99.90;;;;;;952457;148;27332;-86
2023/12/07 10:43:02;;;;;;;13.97;11.27;;;6.50;99.90;;;;;;954301;148;27259;-82
2023/12/07 10:45:29;;;;;;;13.70;11.87;;;6.50;99.90;;;;;;953252;147;27883;-82
2023/12/07 10:47:56;;;;;;;16.00;11.40;;;6.40;99.90;;;;;;942689;148;27432;-81
2023/12/07 10:50:23;;;;;;;14.00;11.13;;;6.40;99.90;;;;;;941629;148;28426;-79
2023/12/07 10:52:55;;;;;;;14.20;10.63;;;6.40;99.90;;;;;;942096;149;27369;-79
2023/12/07 10:55:23;;;;;;;14.97;11.27;;;6.40;99.90;;;;;;939854;148;27337;-81
2023/12/07 10:57:48;;;;;;;14.53;11.47;;;6.40;99.90;;;;;;939181;149;27389;-80
2023/12/07 11:00:14;;;;;;;13.10;11.33;;;6.40;99.90;;;;;;937949;150;27313;-80
2023/12/07 11:02:41;;;;;;;14.93;11.70;;;6.40;99.90;;;;;;939383;150;27291;-81
2023/12/07 11:05:07;;;;;;;12.90;11.10;;;6.40;99.90;;;;;;938072;150;27268;-81
2023/12/07 11:07:46;;;;;;;13.17;10.90;;;6.40;99.90;;;;;;940678;150;27678;-81
2023/12/07 11:10:12;;;;;;;17.80;12.60;;;6.40;99.90;;;;;;938872;148;27364;-81
2023/12/07 11:12:39;;;;;;;14.87;11.77;;;6.40;99.90;;;;;;938685;148;27378;-81
2023/12/07 11:15:06;;;;;;;13.70;11.70;;;6.30;99.90;;;;;;937886;150;27312;-81
2023/12/07 11:17:32;;;;;;;13.73;11.63;;;6.30;99.90;;;;;;941153;150;27415;-81
2023/12/07 11:19:59;;;;;;;15.30;12.47;;;6.30;99.90;;;;;;936308;150;27348;-81
2023/12/07 11:22:26;;;;;;;14.00;10.77;;;6.30;99.90;;;;;;938814;150;27309;-81
2023/12/07 11:24:57;;;;;;;15.27;11.30;;;6.20;99.90;;;;;;944013;147;27416;-81
2023/12/07 11:27:21;;;;;;;12.33;10.17;;;6.20;99.90;;;;;;941716;148;27287;-81
2023/12/07 11:29:48;;;;;;;13.83;11.57;;;6.20;99.90;;;;;;939426;148;27443;-81
2023/12/07 11:32:15;;;;;;;13.07;10.03;;;6.20;99.90;;;;;;936731;150;27386;-82
2023/12/07 11:34:41;;;;;;;12.33;9.47;;;6.20;99.90;;;;;;938972;150;27366;-82
2023/12/07 11:37:10;;;;;;;14.73;11.07;;;6.20;99.90;;;;;;935848;150;27260;-82
2023/12/07 11:39:37;;;;;;;11.97;10.37;;;6.10;99.90;;;;;;939296;150;27869;-82
2023/12/07 11:42:15;;;;;;;11.90;10.23;;;6.10;99.90;;;;;;940204;150;27426;-82
2023/12/07 11:44:42;;;;;;;12.83;10.70;;;6.10;99.90;;;;;;938776;150;27379;-82
2023/12/07 11:47:09;;;;;;;13.87;11.43;;;6.10;99.90;;;;;;940076;148;27296;-83
2023/12/07 11:49:35;;;;;;;13.70;10.77;;;6.10;99.90;;;;;;938554;149;27403;-83
2023/12/07 11:52:02;;;;;;;13.80;10.60;;;6.10;99.90;;;;;;946368;148;27338;-84
2023/12/07 11:54:28;;;;;;;14.70;11.53;;;6.00;99.90;;;;;;947058;148;27268;-84
2023/12/07 11:56:55;;;;;;;13.73;10.80;;;6.00;99.90;;;;;;949020;148;27360;-84
2023/12/07 11:59:22;;;;;;;14.07;11.80;;;6.00;99.90;;;;;;949304;148;27313;-84
2023/12/07 12:01:48;;;;;;;12.13;10.87;;;6.00;99.90;;;;;;949660;148;27335;-84
2023/12/07 12:04:17;;;;;;;11.40;10.13;;;6.10;99.90;;;;;;950400;148;27293;-84
2023/12/07 12:06:44;;;;;;;11.47;9.97;;;6.10;99.90;;;;;;951148;147;27357;-85
2023/12/07 12:09:11;;;;;;;13.70;10.53;;;6.10;99.90;;;;;;952078;147;27620;-85
2023/12/07 12:11:37;;;;;;;13.13;10.93;;;6.20;99.90;;;;;;946120;147;27312;-84
2023/12/07 12:14:04;;;;;;;13.30;11.23;;;6.30;99.90;;;;;;948579;146;27326;-85
2023/12/07 12:16:30;;;;;;;15.03;11.97;;;6.40;99.90;;;;;;945285;148;27351;-83
2023/12/07 12:18:57;;;;;;;13.40;11.67;;;6.50;99.90;;;;;;952007;148;27340;-85
2023/12/07 12:21:23;;;;;;;14.07;11.43;;;6.60;99.90;;;;;;951239;148;27289;-85
2023/12/07 12:23:51;;;;;;;13.43;11.63;;;6.70;99.90;;;;;;948451;147;27348;-84
2023/12/07 12:26:16;;;;;;;13.77;11.73;;;6.80;99.90;;;;;;948628;148;27369;-87
2023/12/07 12:28:43;;;;;;;12.97;11.57;;;6.90;99.90;;;;;;948943;148;27348;-84
2023/12/07 12:31:11;;;;;;;14.73;13.13;;;7.00;99.90;;;;;;951558;148;27348;-84
2023/12/07 12:33:36;;;;;;;14.40;12.07;;;7.10;99.90;;;;;;950082;147;27423;-84
2023/12/07 12:36:03;;;;;;;13.30;11.90;;;7.10;99.90;;;;;;948504;148;27293;-83
2023/12/07 12:38:29;;;;;;;11.60;10.33;;;7.20;99.90;;;;;;948573;148;27296;-83
2023/12/07 12:40:56;;;;;;;11.27;10.17;;;7.30;99.90;;;;;;947861;148;27428;-83
2023/12/07 12:43:23;;;;;;;10.50;9.50;;;7.30;99.90;;;;;;949953;148;27305;-82
2023/12/07 12:45:49;;;;;;;10.37;9.37;;;7.40;99.90;;;;;;947482;148;27433;-81